Time;durP1;ratioP1;P1;durP2;ratioP2;P2;SDS_P1;SDS_P2;PMS_P1;PMS_P2;Temp;Humidity;BMP_temperature;BMP_pressure;BME280_temperature;BME280_humidity;BME280_pressure;Samples;Min_cycle;Max_cycle;Signal;HPM_P1;HPM_P2
2022/08/19 00:01:45;;;;;;;6.65;4.80;;;16.50;99.90;;;;;;5048913;28;20037;-85
2022/08/19 00:04:13;;;;;;;6.13;5.05;;;16.50;99.90;;;;;;5044016;28;20546;-85
2022/08/19 00:06:42;;;;;;;6.25;5.65;;;16.40;99.90;;;;;;5029796;28;20053;-86
2022/08/19 00:09:10;;;;;;;6.03;5.13;;;16.40;99.90;;;;;;5030310;28;20041;-84
2022/08/19 00:11:37;;;;;;;6.43;4.78;;;16.40;99.90;;;;;;5049069;28;20441;-83
2022/08/19 00:14:04;;;;;;;9.13;5.50;;;16.20;99.90;;;;;;5046521;28;20045;-85
2022/08/19 00:16:29;;;;;;;7.40;5.30;;;16.00;99.90;;;;;;5048080;28;20091;-83
2022/08/19 00:18:55;;;;;;;10.27;5.25;;;15.80;99.90;;;;;;5025439;28;20483;-83
2022/08/19 00:21:21;;;;;;;7.95;5.07;;;15.80;99.90;;;;;;5048875;28;20041;-84
2022/08/19 00:23:47;;;;;;;7.18;5.47;;;15.80;99.90;;;;;;5046732;28;20041;-84
2022/08/19 00:26:13;;;;;;;8.40;5.10;;;15.90;99.90;;;;;;5044893;28;20568;-83
2022/08/19 00:28:39;;;;;;;7.07;5.00;;;15.90;99.90;;;;;;5031347;28;20041;-83
2022/08/19 00:31:08;;;;;;;6.95;5.85;;;15.90;99.90;;;;;;5044590;28;20033;-83
2022/08/19 00:33:34;;;;;;;6.38;5.28;;;15.80;99.90;;;;;;5048591;28;20086;-83
2022/08/19 00:36:01;;;;;;;6.65;4.68;;;15.80;99.90;;;;;;5045181;28;20045;-83
2022/08/19 00:38:27;;;;;;;5.53;4.05;;;15.80;99.90;;;;;;5038454;28;20403;-83
2022/08/19 00:40:53;;;;;;;4.22;3.78;;;15.80;99.90;;;;;;5046852;28;20045;-84
2022/08/19 00:43:21;;;;;;;4.72;3.67;;;15.80;99.90;;;;;;5048879;28;20040;-84
2022/08/19 00:45:47;;;;;;;5.07;3.60;;;15.90;99.90;;;;;;5023104;28;20499;-84
2022/08/19 00:48:14;;;;;;;6.50;3.55;;;15.80;99.90;;;;;;5048979;28;20055;-84
2022/08/19 00:50:42;;;;;;;3.95;2.75;;;15.80;99.90;;;;;;5048243;28;20045;-85
2022/08/19 00:53:10;;;;;;;4.97;3.25;;;15.80;99.90;;;;;;5047597;28;20041;-85
2022/08/19 00:55:38;;;;;;;3.75;3.10;;;15.80;99.90;;;;;;5026822;28;20407;-84
2022/08/19 00:58:08;;;;;;;5.22;3.42;;;15.70;99.90;;;;;;5048864;28;20029;-85
2022/08/19 01:00:36;;;;;;;5.32;3.95;;;15.70;99.90;;;;;;5048832;28;20116;-84
2022/08/19 01:03:11;;;;;;;5.45;4.25;;;15.70;99.90;;;;;;5048156;28;20049;-83
2022/08/19 01:05:39;;;;;;;5.38;4.88;;;15.70;99.90;;;;;;5044844;28;20075;-83
2022/08/19 01:08:06;;;;;;;6.22;4.65;;;15.60;99.90;;;;;;5028015;28;20056;-84
2022/08/19 01:10:42;;;;;;;5.43;4.10;;;15.60;99.90;;;;;;5043840;28;20033;-85
2022/08/19 01:13:08;;;;;;;4.72;3.92;;;15.50;99.90;;;;;;5041907;28;20037;-84
2022/08/19 01:15:41;;;;;;;4.68;4.22;;;15.40;99.90;;;;;;5045585;28;20075;-84
2022/08/19 01:18:11;;;;;;;6.27;5.13;;;15.40;99.90;;;;;;5031061;28;20094;-84
2022/08/19 01:20:39;;;;;;;5.90;4.80;;;15.30;99.90;;;;;;5046990;28;20129;-84
2022/08/19 01:23:04;;;;;;;4.80;4.30;;;15.30;99.90;;;;;;5031815;28;20551;-84
2022/08/19 01:25:36;;;;;;;6.70;5.65;;;15.40;99.90;;;;;;5046605;28;20032;-84
2022/08/19 01:28:02;;;;;;;6.30;5.03;;;15.40;99.90;;;;;;5053334;28;20115;-84
2022/08/19 01:30:32;;;;;;;6.30;5.45;;;15.40;99.90;;;;;;5032057;28;20044;-83
2022/08/19 01:33:00;;;;;;;6.97;5.13;;;15.40;99.90;;;;;;5031134;28;20068;-83
2022/08/19 01:35:28;;;;;;;5.97;5.03;;;15.30;99.90;;;;;;5048056;28;20116;-83
2022/08/19 01:37:58;;;;;;;6.90;5.50;;;15.30;99.90;;;;;;5050205;28;20052;-83
2022/08/19 01:40:26;;;;;;;6.55;5.88;;;15.20;99.90;;;;;;5049042;28;20068;-83
2022/08/19 01:42:53;;;;;;;10.15;5.72;;;15.20;99.90;;;;;;5051554;28;20041;-83
2022/08/19 01:45:21;;;;;;;6.82;5.80;;;15.20;99.90;;;;;;5051360;28;20044;-83
2022/08/19 01:47:48;;;;;;;6.88;5.43;;;15.20;99.90;;;;;;5045020;28;20448;-83
2022/08/19 01:50:14;;;;;;;7.32;5.50;;;15.20;99.90;;;;;;5032143;28;20045;-83
2022/08/19 01:52:41;;;;;;;7.30;5.57;;;15.30;99.90;;;;;;5031703;28;20106;-83
2022/08/19 01:55:10;;;;;;;7.55;5.82;;;15.20;99.90;;;;;;5049042;28;20072;-84
2022/08/19 01:57:38;;;;;;;9.15;6.38;;;15.30;99.90;;;;;;5051704;28;20041;-84
2022/08/19 02:00:08;;;;;;;8.63;6.05;;;15.20;99.90;;;;;;5046503;28;20399;-83
2022/08/19 02:02:34;;;;;;;7.22;5.60;;;15.20;99.90;;;;;;5049680;28;20044;-83
2022/08/19 02:04:59;;;;;;;8.52;5.43;;;15.10;99.90;;;;;;5032898;28;20040;-83
2022/08/19 02:07:25;;;;;;;6.97;5.72;;;15.10;99.90;;;;;;5051782;28;20577;-82
2022/08/19 02:09:50;;;;;;;6.60;5.90;;;15.10;99.90;;;;;;5030796;28;20636;-82
2022/08/19 02:12:16;;;;;;;8.43;6.20;;;15.10;99.90;;;;;;5049676;28;20151;-83
2022/08/19 02:14:42;;;;;;;8.23;6.28;;;15.10;99.90;;;;;;5023478;28;20511;-83
2022/08/19 02:17:07;;;;;;;7.90;6.93;;;15.10;99.90;;;;;;5049949;28;20511;-82
2022/08/19 02:19:33;;;;;;;8.82;7.63;;;15.10;99.90;;;;;;5050591;28;20050;-83
2022/08/19 02:21:59;;;;;;;8.90;7.40;;;15.10;99.90;;;;;;5050593;28;20025;-82
2022/08/19 02:24:25;;;;;;;9.55;7.30;;;15.10;99.90;;;;;;5051137;28;20047;-83
2022/08/19 02:26:51;;;;;;;9.27;7.35;;;15.00;99.90;;;;;;5052146;28;20040;-82
2022/08/19 02:29:17;;;;;;;9.10;7.10;;;14.90;99.90;;;;;;5025451;28;20042;-83
2022/08/19 02:31:42;;;;;;;10.45;7.40;;;15.10;99.90;;;;;;5048169;28;20049;-83
2022/08/19 02:34:08;;;;;;;10.45;7.40;;;15.10;99.90;;;;;;5048140;28;20064;-82
2022/08/19 02:36:34;;;;;;;9.60;6.97;;;15.00;99.90;;;;;;5049022;28;20415;-82
2022/08/19 02:39:00;;;;;;;8.57;6.18;;;15.10;99.90;;;;;;5044428;28;20644;-82
2022/08/19 02:41:28;;;;;;;7.88;6.65;;;15.00;99.90;;;;;;5048036;28;20036;-81
2022/08/19 02:43:57;;;;;;;7.25;6.07;;;15.00;99.90;;;;;;5044201;28;20076;-82
2022/08/19 02:46:26;;;;;;;8.38;6.88;;;15.00;99.90;;;;;;5034382;28;20079;-83
2022/08/19 02:48:54;;;;;;;7.20;6.30;;;14.90;99.90;;;;;;5049029;28;20048;-83
2022/08/19 02:51:26;;;;;;;7.03;6.05;;;14.90;99.90;;;;;;5051102;28;20090;-83
2022/08/19 02:53:52;;;;;;;8.13;6.40;;;14.90;99.90;;;;;;5050510;28;20049;-83
2022/08/19 02:56:19;;;;;;;7.93;6.30;;;14.80;99.90;;;;;;5029827;28;20037;-83
2022/08/19 02:58:44;;;;;;;9.50;6.68;;;14.80;99.90;;;;;;5042242;28;20048;-83
2022/08/19 03:01:11;;;;;;;8.43;6.18;;;14.80;99.90;;;;;;5030369;28;20033;-83
2022/08/19 03:03:37;;;;;;;8.25;6.63;;;14.90;99.90;;;;;;5049103;28;20070;-84
2022/08/19 03:06:10;;;;;;;9.05;6.88;;;14.80;99.90;;;;;;5033845;28;20045;-83
2022/08/19 03:08:37;;;;;;;8.47;6.30;;;14.80;99.90;;;;;;5032167;28;20044;-83
2022/08/19 03:11:03;;;;;;;8.45;6.82;;;14.70;99.90;;;;;;5050025;28;20045;-83
2022/08/19 03:13:29;;;;;;;7.03;6.32;;;14.70;99.90;;;;;;5049485;28;20036;-83
2022/08/19 03:15:55;;;;;;;7.60;6.80;;;14.70;99.90;;;;;;5028998;28;20048;-83
2022/08/19 03:18:20;;;;;;;8.43;6.40;;;14.60;99.90;;;;;;5047074;28;20041;-83
2022/08/19 03:20:49;;;;;;;9.25;6.60;;;14.60;99.90;;;;;;5048577;28;20032;-84
2022/08/19 03:23:16;;;;;;;7.97;6.68;;;14.50;99.90;;;;;;5032564;28;20047;-83
2022/08/19 03:25:46;;;;;;;7.90;6.97;;;14.40;99.90;;;;;;5030995;28;20033;-84
2022/08/19 03:28:14;;;;;;;8.65;6.88;;;14.50;99.90;;;;;;5022740;28;20143;-83
2022/08/19 03:30:41;;;;;;;7.95;7.03;;;14.50;99.90;;;;;;5023675;28;20044;-83
2022/08/19 03:33:08;;;;;;;9.40;7.63;;;14.50;99.90;;;;;;5049163;28;20033;-84
2022/08/19 03:35:36;;;;;;;10.60;7.00;;;14.60;99.90;;;;;;5045711;28;20045;-84
2022/08/19 03:38:06;;;;;;;8.88;6.95;;;14.50;99.90;;;;;;5050121;28;20052;-84
2022/08/19 03:40:34;;;;;;;8.73;7.10;;;14.60;99.90;;;;;;5026946;28;20399;-83
2022/08/19 03:43:00;;;;;;;8.90;8.00;;;14.70;99.90;;;;;;5050699;28;20046;-83
2022/08/19 03:45:26;;;;;;;8.60;7.45;;;14.70;99.90;;;;;;5045334;28;20399;-83
2022/08/19 03:47:52;;;;;;;11.82;7.50;;;14.60;99.90;;;;;;5033921;28;20075;-84
2022/08/19 03:50:19;;;;;;;8.05;6.90;;;14.60;99.90;;;;;;5043559;28;20040;-83
2022/08/19 03:52:51;;;;;;;8.50;7.28;;;14.50;99.90;;;;;;5042104;28;20056;-83
2022/08/19 03:55:18;;;;;;;11.18;8.27;;;14.50;99.90;;;;;;5049452;28;20128;-83
2022/08/19 03:57:45;;;;;;;9.05;7.82;;;14.50;99.90;;;;;;5029203;28;20042;-82
2022/08/19 04:00:11;;;;;;;8.73;7.50;;;14.50;99.90;;;;;;5029819;28;20086;-84
2022/08/19 04:02:37;;;;;;;10.43;7.40;;;14.50;99.90;;;;;;5047014;28;20041;-83
2022/08/19 04:05:03;;;;;;;8.25;6.28;;;14.50;99.90;;;;;;5048363;28;20036;-84
2022/08/19 04:07:28;;;;;;;7.80;6.00;;;14.50;99.90;;;;;;5033594;28;20178;-84
2022/08/19 04:09:54;;;;;;;6.57;5.10;;;14.50;99.90;;;;;;5044368;28;20525;-83
2022/08/19 04:12:20;;;;;;;6.00;4.82;;;14.50;99.90;;;;;;5049155;28;20459;-82
2022/08/19 04:14:46;;;;;;;5.80;5.00;;;14.40;99.90;;;;;;5047058;28;20041;-82
2022/08/19 04:17:13;;;;;;;7.28;5.40;;;14.40;99.90;;;;;;5048196;28;20047;-82
2022/08/19 04:19:40;;;;;;;6.50;5.13;;;14.40;99.90;;;;;;5025022;28;20162;-83
2022/08/19 04:22:06;;;;;;;6.38;5.57;;;14.40;99.90;;;;;;5046474;28;20503;-84
2022/08/19 04:24:34;;;;;;;7.55;5.38;;;14.40;99.90;;;;;;5048989;28;20051;-83
2022/08/19 04:27:01;;;;;;;6.47;5.10;;;14.40;99.90;;;;;;5041188;28;20043;-83
2022/08/19 04:29:27;;;;;;;5.60;4.97;;;14.40;99.90;;;;;;5044443;28;20128;-83
2022/08/19 04:31:55;;;;;;;6.22;5.13;;;14.40;99.90;;;;;;5049384;28;20075;-83
2022/08/19 04:34:23;;;;;;;6.40;5.40;;;14.30;99.90;;;;;;5046013;28;20060;-83
2022/08/19 04:36:50;;;;;;;7.30;5.30;;;14.30;99.90;;;;;;5046793;28;20049;-83
2022/08/19 04:39:22;;;;;;;6.65;5.00;;;14.30;99.90;;;;;;5048997;28;20029;-82
2022/08/19 04:42:48;;;;;;;9.20;5.30;;;14.30;99.90;;;;;;5026149;28;20033;-83
2022/08/19 04:44:43;;;;;;;5.57;4.85;;;14.20;99.90;;;;;;5043942;28;20207;-83
2022/08/19 04:47:08;;;;;;;7.72;4.68;;;14.20;99.90;;;;;;5050166;28;20115;-83
2022/08/19 04:49:34;;;;;;;6.45;4.38;;;14.10;99.90;;;;;;5029317;28;20587;-83
2022/08/19 04:51:59;;;;;;;4.43;3.75;;;14.10;99.90;;;;;;5032032;28;20041;-82
2022/08/19 04:54:25;;;;;;;6.60;4.05;;;14.10;99.90;;;;;;5046444;28;20033;-82
2022/08/19 04:56:52;;;;;;;4.38;3.70;;;14.00;99.90;;;;;;5050208;28;20585;-82
2022/08/19 04:59:19;;;;;;;5.45;3.90;;;14.00;99.90;;;;;;5044892;28;20426;-82
2022/08/19 05:01:49;;;;;;;4.95;3.90;;;14.00;99.90;;;;;;5039979;28;20045;-82
2022/08/19 05:04:16;;;;;;;4.88;4.05;;;14.00;99.90;;;;;;5052243;28;20056;-81
2022/08/19 05:06:42;;;;;;;8.23;4.65;;;14.00;99.90;;;;;;5053707;28;20060;-81
2022/08/19 05:09:08;;;;;;;5.75;4.20;;;14.00;99.90;;;;;;5054643;28;20044;-81
2022/08/19 05:11:38;;;;;;;8.82;5.03;;;14.10;99.90;;;;;;5054968;28;20148;-81
2022/08/19 05:14:05;;;;;;;6.90;5.00;;;14.10;99.90;;;;;;5054559;28;20418;-81
2022/08/19 05:16:31;;;;;;;7.03;5.43;;;14.10;99.90;;;;;;5053285;28;20384;-82
2022/08/19 05:24:27;;;;;;;8.05;6.32;;;14.30;99.90;;;;;;5040980;28;20055;-83
2022/08/19 05:26:56;;;;;;;9.10;5.88;;;14.50;99.90;;;;;;5049448;28;20786;-84
2022/08/19 05:29:23;;;;;;;7.18;6.15;;;14.60;99.90;;;;;;5048780;28;20446;-83
2022/08/19 05:31:49;;;;;;;9.15;6.80;;;14.70;99.90;;;;;;5048442;28;20045;-82
2022/08/19 05:34:17;;;;;;;9.38;7.63;;;14.90;99.90;;;;;;5029651;28;20491;-82
2022/08/19 05:36:45;;;;;;;8.88;7.68;;;15.00;99.90;;;;;;5045773;28;20049;-81
2022/08/19 05:39:16;;;;;;;8.98;7.88;;;15.10;99.90;;;;;;5027842;28;20491;-81
2022/08/19 05:41:47;;;;;;;10.45;8.13;;;15.30;99.90;;;;;;5043912;28;20043;-81
2022/08/19 05:44:13;;;;;;;11.98;8.80;;;15.30;99.90;;;;;;5044052;28;20044;-83
2022/08/19 05:46:39;;;;;;;12.05;8.98;;;15.50;99.90;;;;;;5047457;28;20049;-82
2022/08/19 05:49:06;;;;;;;11.07;8.85;;;15.60;99.90;;;;;;5048060;28;20559;-82
2022/08/19 05:51:34;;;;;;;11.32;8.82;;;15.70;99.90;;;;;;5053727;28;20045;-81
2022/08/19 05:54:00;;;;;;;12.32;9.73;;;15.90;99.90;;;;;;5050189;28;20066;-81
2022/08/19 05:56:26;;;;;;;12.68;10.18;;;16.00;99.90;;;;;;5052648;28;20107;-81
2022/08/19 05:58:53;;;;;;;14.07;9.40;;;16.00;99.90;;;;;;5033569;28;20084;-80
2022/08/19 06:01:20;;;;;;;13.85;10.32;;;16.10;99.90;;;;;;5053150;28;20037;-80
2022/08/19 06:03:45;;;;;;;13.55;9.45;;;16.20;99.90;;;;;;5050653;28;20041;-80
2022/08/19 06:06:13;;;;;;;12.85;10.52;;;16.40;99.90;;;;;;5034083;28;20524;-81
2022/08/19 06:08:39;;;;;;;12.95;9.98;;;16.50;99.90;;;;;;5034364;28;20704;-81
2022/08/19 06:11:21;;;;;;;13.95;10.18;;;16.50;99.90;;;;;;5052070;28;20112;-81
2022/08/19 06:13:52;;;;;;;13.52;10.27;;;16.70;99.90;;;;;;5047319;28;20563;-80
2022/08/19 06:16:22;;;;;;;14.60;10.88;;;16.80;99.90;;;;;;5046639;28;20036;-81
2022/08/19 06:18:56;;;;;;;14.10;10.15;;;17.00;99.90;;;;;;5048220;28;20075;-81
2022/08/19 06:21:27;;;;;;;15.65;10.43;;;17.00;99.90;;;;;;5033690;28;20116;-81
2022/08/19 06:23:54;;;;;;;14.85;11.23;;;17.20;99.90;;;;;;5051559;28;20041;-81
2022/08/19 06:26:21;;;;;;;14.13;10.30;;;17.30;99.90;;;;;;5034021;28;20041;-80
2022/08/19 06:28:47;;;;;;;16.10;11.05;;;17.40;99.90;;;;;;5034948;28;20052;-81
2022/08/19 06:31:26;;;;;;;13.38;10.00;;;17.50;99.90;;;;;;5053832;28;20041;-81
2022/08/19 06:33:52;;;;;;;13.73;10.15;;;17.60;99.90;;;;;;5031371;28;20045;-82
2022/08/19 06:36:31;;;;;;;14.27;10.57;;;17.70;99.90;;;;;;5036181;28;20068;-80
2022/08/19 06:38:58;;;;;;;13.77;9.60;;;17.80;99.90;;;;;;5052930;28;20032;-82
2022/08/19 06:41:24;;;;;;;12.60;9.60;;;18.00;99.90;;;;;;5036706;28;20047;-81
2022/08/19 06:43:50;;;;;;;11.93;9.55;;;18.10;99.90;;;;;;5049181;28;20029;-81
2022/08/19 06:46:18;;;;;;;12.10;8.93;;;18.30;99.90;;;;;;5052018;28;20036;-81
2022/08/19 06:48:44;;;;;;;11.82;9.13;;;18.40;99.90;;;;;;5049703;28;20121;-81
2022/08/19 06:51:10;;;;;;;12.75;9.70;;;18.50;99.90;;;;;;5051406;28;20138;-81
2022/08/19 06:53:36;;;;;;;12.95;8.98;;;18.70;99.90;;;;;;5051901;28;20041;-81
2022/08/19 06:56:02;;;;;;;11.35;9.68;;;18.80;99.90;;;;;;5034437;28;20041;-82
2022/08/19 06:58:31;;;;;;;13.15;8.80;;;18.90;99.90;;;;;;5035927;28;20369;-82
2022/08/19 07:01:00;;;;;;;12.52;9.00;;;19.10;99.90;;;;;;5048445;28;20091;-81
2022/08/19 07:03:30;;;;;;;13.02;9.73;;;19.20;99.90;;;;;;5051164;28;20025;-81
2022/08/19 07:05:56;;;;;;;12.23;9.43;;;19.40;99.90;;;;;;5026029;28;20121;-82
2022/08/19 07:08:21;;;;;;;15.57;9.32;;;19.50;99.90;;;;;;5042044;28;20128;-80
2022/08/19 07:10:48;;;;;;;10.65;9.15;;;19.50;99.90;;;;;;5044055;28;20123;-81
2022/08/19 07:13:14;;;;;;;10.75;9.10;;;19.60;99.90;;;;;;5045887;28;20037;-80
2022/08/19 07:15:40;;;;;;;13.25;9.57;;;19.80;99.90;;;;;;5049210;28;20553;-80
2022/08/19 07:18:06;;;;;;;11.90;9.20;;;19.90;99.90;;;;;;5042390;28;20041;-81
2022/08/19 07:20:32;;;;;;;12.48;9.52;;;20.00;99.90;;;;;;5050419;28;20029;-80
2022/08/19 07:22:58;;;;;;;12.35;9.07;;;20.10;99.90;;;;;;5050151;28;20052;-81
2022/08/19 07:25:23;;;;;;;10.93;9.30;;;20.20;99.90;;;;;;5040505;28;20033;-82
2022/08/19 07:27:50;;;;;;;12.10;9.50;;;20.30;99.90;;;;;;5042734;28;20470;-82
2022/08/19 07:30:16;;;;;;;12.70;9.55;;;20.40;99.90;;;;;;5047538;28;20083;-82
2022/08/19 07:32:42;;;;;;;11.48;9.30;;;20.50;99.90;;;;;;5049073;28;20044;-82
2022/08/19 07:35:09;;;;;;;15.15;9.73;;;20.70;99.90;;;;;;5047008;28;20052;-83
2022/08/19 07:37:36;;;;;;;11.27;9.40;;;20.80;99.90;;;;;;5029299;28;20045;-81
2022/08/19 07:40:04;;;;;;;10.27;8.88;;;20.90;99.90;;;;;;5048916;28;20167;-82
2022/08/19 07:42:29;;;;;;;12.65;9.43;;;21.00;99.90;;;;;;5052749;28;20040;-82
2022/08/19 07:44:55;;;;;;;11.38;9.25;;;21.10;99.90;;;;;;5050105;28;20430;-82
2022/08/19 07:47:21;;;;;;;10.02;9.05;;;21.20;99.90;;;;;;5050910;28;20411;-84
2022/08/19 07:49:47;;;;;;;11.10;8.68;;;21.30;99.90;;;;;;5049567;28;20049;-83
2022/08/19 07:52:12;;;;;;;12.93;8.35;;;21.40;99.90;;;;;;5040277;28;20049;-83
2022/08/19 07:54:40;;;;;;;10.82;8.43;;;21.50;99.90;;;;;;5041065;28;20072;-84
2022/08/19 07:57:06;;;;;;;9.40;8.20;;;21.70;99.90;;;;;;5047149;28;20143;-83
2022/08/19 07:59:32;;;;;;;8.98;8.07;;;21.80;99.90;;;;;;5044008;28;20082;-83
2022/08/19 08:02:00;;;;;;;11.57;8.75;;;21.90;99.90;;;;;;5049101;28;20486;-81
2022/08/19 08:09:55;;;;;;;11.00;9.25;;;22.10;99.90;;;;;;5039002;28;20048;-82
2022/08/19 08:12:28;;;;;;;10.60;9.40;;;22.20;99.90;;;;;;5045180;28;20029;-83
2022/08/19 08:14:56;;;;;;;12.25;9.93;;;22.20;99.90;;;;;;5025683;28;20045;-81
2022/08/19 08:17:24;;;;;;;11.95;9.98;;;22.40;99.90;;;;;;5024257;28;20450;-83
2022/08/19 08:19:50;;;;;;;13.18;9.77;;;22.40;99.90;;;;;;5048495;28;20044;-81
2022/08/19 08:25:12;;;;;;;11.90;9.80;;;22.50;99.90;;;;;;5052970;28;20041;-82
2022/08/19 08:27:40;;;;;;;12.10;10.15;;;22.60;99.90;;;;;;5043087;28;20037;-83
2022/08/19 08:30:09;;;;;;;10.85;9.45;;;22.70;99.90;;;;;;5050404;28;20094;-83
2022/08/19 08:32:36;;;;;;;11.82;9.52;;;22.70;99.90;;;;;;5023971;28;20090;-83
2022/08/19 08:35:06;;;;;;;10.50;8.98;;;22.80;99.90;;;;;;5049861;28;20506;-83
2022/08/19 08:37:32;;;;;;;10.05;8.18;;;22.80;99.90;;;;;;5052537;28;20507;-84
2022/08/19 08:39:58;;;;;;;12.43;8.55;;;23.00;99.90;;;;;;5044945;28;20040;-83
2022/08/19 08:42:39;;;;;;;11.90;9.50;;;23.10;99.90;;;;;;5035961;28;20041;-83
2022/08/19 08:45:15;;;;;;;11.57;9.20;;;23.10;99.90;;;;;;5054255;28;20414;-82
2022/08/19 08:47:47;;;;;;;10.30;7.85;;;23.20;99.90;;;;;;5051817;28;20033;-82
2022/08/19 08:50:23;;;;;;;10.68;8.70;;;23.20;99.90;;;;;;5044513;28;20124;-84
2022/08/19 08:52:53;;;;;;;11.13;8.80;;;23.30;99.90;;;;;;5051384;28;20388;-82
2022/08/19 08:55:29;;;;;;;12.68;8.98;;;23.30;99.90;;;;;;5058624;28;20064;-81
2022/08/19 08:58:03;;;;;;;10.88;8.90;;;23.30;99.90;;;;;;5049624;28;20087;-82
2022/08/19 09:00:31;;;;;;;;;;;23.40;99.90;;;;;;5052377;28;20565;-82
2022/08/19 09:02:59;;;;;;;11.68;10.48;;;23.30;99.90;;;;;;5046368;28;19925;-83
2022/08/19 09:05:35;;;;;;;10.98;9.60;;;23.30;99.90;;;;;;5054390;28;20075;-82
2022/08/19 09:08:08;;;;;;;10.50;9.00;;;23.40;99.90;;;;;;5050685;28;20514;-83
2022/08/19 09:10:39;;;;;;;10.35;9.40;;;23.40;99.90;;;;;;5057774;28;20055;-82
2022/08/19 09:13:39;;;;;;;11.48;10.27;;;23.50;99.90;;;;;;5039050;28;20049;-82
2022/08/19 09:16:31;;;;;;;13.43;9.48;;;23.50;99.90;;;;;;5034101;28;20041;-82
2022/08/19 09:19:07;;;;;;;10.93;9.55;;;23.50;99.90;;;;;;5044445;28;20079;-82
2022/08/19 09:21:34;;;;;;;10.48;9.38;;;23.50;99.90;;;;;;5051344;28;20040;-84
2022/08/19 09:24:01;;;;;;;10.63;9.52;;;23.60;99.90;;;;;;5048082;28;20040;-82
2022/08/19 09:26:27;;;;;;;10.57;8.70;;;23.60;99.90;;;;;;5057683;28;20380;-84
2022/08/19 09:28:54;;;;;;;10.60;7.93;;;23.70;99.90;;;;;;5050989;28;20040;-83
2022/08/19 09:31:23;;;;;;;9.43;8.43;;;23.80;99.90;;;;;;5048942;28;20041;-84
2022/08/19 09:33:49;;;;;;;10.52;9.48;;;23.90;99.90;;;;;;5049262;28;20461;-83
2022/08/19 09:36:18;;;;;;;11.23;10.10;;;23.90;99.90;;;;;;5050601;28;20049;-83
2022/08/19 09:38:44;;;;;;;12.82;10.63;;;23.90;99.90;;;;;;5045752;28;20047;-83
2022/08/19 09:41:16;;;;;;;12.40;10.15;;;24.00;99.90;;;;;;5052743;28;20041;-85
2022/08/19 09:43:44;;;;;;;10.35;9.13;;;23.90;99.90;;;;;;5027343;28;20065;-85
2022/08/19 09:46:09;;;;;;;11.75;9.63;;;24.00;99.90;;;;;;5043055;28;20148;-83
2022/08/19 09:48:36;;;;;;;13.57;10.13;;;24.10;99.90;;;;;;5050120;28;20132;-83
2022/08/19 09:51:10;;;;;;;10.93;9.80;;;24.20;99.90;;;;;;5049634;28;20045;-84
2022/08/19 09:53:37;;;;;;;12.70;10.85;;;24.20;99.90;;;;;;5026692;28;20116;-83
2022/08/19 09:56:04;;;;;;;12.80;11.50;;;24.30;99.90;;;;;;5046447;28;20041;-84
2022/08/19 09:58:30;;;;;;;12.55;11.20;;;24.30;99.90;;;;;;5045129;28;20045;-84
2022/08/19 10:00:58;;;;;;;14.07;10.70;;;24.40;99.90;;;;;;5047071;28;20028;-83
2022/08/19 10:03:24;;;;;;;11.13;10.02;;;24.40;99.90;;;;;;5052946;28;20067;-84
2022/08/19 10:05:50;;;;;;;11.70;9.77;;;24.50;99.90;;;;;;5050891;28;20051;-83
2022/08/19 10:08:22;;;;;;;11.52;10.00;;;24.50;99.90;;;;;;5054079;28;20033;-79
2022/08/19 10:10:50;;;;;;;9.85;8.85;;;24.60;99.90;;;;;;5052990;28;20033;-80
2022/08/19 10:13:20;;;;;;;9.80;8.82;;;24.70;99.90;;;;;;5050775;28;20430;-81
2022/08/19 10:15:45;;;;;;;9.77;8.77;;;24.80;99.90;;;;;;5047674;28;20115;-79
2022/08/19 10:18:11;;;;;;;10.55;8.93;;;24.90;99.90;;;;;;5051346;28;20029;-80
2022/08/19 10:20:36;;;;;;;9.48;8.48;;;25.00;99.90;;;;;;5036672;28;20040;-79
2022/08/19 10:23:03;;;;;;;10.13;9.13;;;25.00;99.90;;;;;;5050065;28;20037;-79
2022/08/19 10:25:28;;;;;;;12.20;10.35;;;25.10;99.90;;;;;;5044687;28;20507;-81
2022/08/19 10:27:54;;;;;;;11.65;9.65;;;25.10;99.90;;;;;;5070228;28;20125;-80
2022/08/19 10:30:20;;;;;;;9.75;8.43;;;25.20;99.90;;;;;;5053214;28;20100;-81
2022/08/19 10:32:45;;;;;;;12.60;10.10;;;25.20;99.90;;;;;;5048174;28;20099;-84
2022/08/19 10:35:12;;;;;;;11.10;8.77;;;25.20;99.90;;;;;;5053337;28;20040;-84
2022/08/19 10:37:39;;;;;;;11.63;10.25;;;25.40;99.90;;;;;;5036563;28;20047;-84
2022/08/19 10:40:07;;;;;;;10.82;9.63;;;25.50;99.90;;;;;;5027633;28;20044;-84
2022/08/19 10:42:35;;;;;;;11.32;10.10;;;25.40;99.90;;;;;;5047354;28;20053;-83
2022/08/19 10:45:01;;;;;;;11.63;10.25;;;25.60;99.90;;;;;;5049634;28;20496;-83
2022/08/19 10:47:27;;;;;;;13.00;10.73;;;25.90;99.90;;;;;;5033188;28;20503;-83
2022/08/19 10:52:38;;;;;;;13.95;12.45;;;26.10;99.90;;;;;;5047865;28;20048;-81
2022/08/19 10:57:52;;;;;;;11.98;10.60;;;25.70;99.90;;;;;;5043485;28;20057;-85
2022/08/19 11:00:19;;;;;;;12.23;10.10;;;25.80;99.90;;;;;;5046857;28;20037;-85
2022/08/19 11:02:46;;;;;;;11.00;9.70;;;25.90;99.90;;;;;;5048709;28;20124;-85
2022/08/19 11:05:13;;;;;;;12.75;10.45;;;26.10;99.90;;;;;;5045951;28;20063;-84
2022/08/19 11:07:40;;;;;;;12.35;10.25;;;26.40;99.90;;;;;;5052287;28;20033;-84
2022/08/19 11:10:08;;;;;;;8.73;7.85;;;26.50;99.90;;;;;;5034619;28;20040;-83
2022/08/19 11:12:35;;;;;;;9.23;8.18;;;26.70;99.90;;;;;;5052138;28;20445;-83
2022/08/19 11:15:01;;;;;;;10.02;8.43;;;27.00;99.90;;;;;;5022030;28;20079;-83
2022/08/19 11:17:27;;;;;;;10.88;7.90;;;27.20;99.90;;;;;;5043991;28;20065;-84
2022/08/19 11:19:52;;;;;;;11.05;9.68;;;27.50;99.90;;;;;;5048080;28;20595;-82
2022/08/19 11:22:18;;;;;;;10.68;9.63;;;27.70;99.90;;;;;;5051498;28;20117;-83
2022/08/19 11:24:44;;;;;;;10.82;9.75;;;27.80;99.90;;;;;;5044651;28;20522;-84
2022/08/19 11:27:10;;;;;;;8.77;7.75;;;27.90;99.90;;;;;;5031937;28;21039;-84
2022/08/19 11:29:38;;;;;;;8.85;7.95;;;27.80;99.90;;;;;;5051706;28;20041;-84
2022/08/19 11:32:08;;;;;;;9.50;7.38;;;27.80;99.90;;;;;;5052221;28;20048;-84
2022/08/19 11:34:35;;;;;;;10.25;8.30;;;28.00;99.90;;;;;;5045991;28;20510;-84
2022/08/19 11:37:01;;;;;;;9.10;8.20;;;27.70;99.90;;;;;;5026453;28;20100;-84
2022/08/19 11:39:30;;;;;;;9.57;8.45;;;27.60;99.90;;;;;;5049198;28;20037;-84
2022/08/19 11:41:58;;;;;;;10.40;8.38;;;27.30;99.90;;;;;;5045625;28;20045;-83
2022/08/19 11:44:24;;;;;;;9.10;7.95;;;27.20;99.90;;;;;;5029379;28;20415;-84
2022/08/19 11:46:49;;;;;;;10.85;8.43;;;26.90;99.90;;;;;;5052045;28;20087;-83
2022/08/19 11:49:19;;;;;;;9.75;8.55;;;26.80;99.90;;;;;;5033477;28;20041;-82
2022/08/19 11:51:46;;;;;;;9.30;8.23;;;26.50;99.90;;;;;;5046141;28;20049;-83
2022/08/19 11:54:15;;;;;;;10.35;9.18;;;26.40;99.90;;;;;;5048026;28;20064;-83
2022/08/19 11:56:41;;;;;;;11.07;9.27;;;26.30;99.90;;;;;;5020283;28;20553;-83
2022/08/19 11:59:07;;;;;;;10.05;7.82;;;26.10;99.90;;;;;;5028794;28;20082;-83
2022/08/19 12:01:34;;;;;;;11.10;7.68;;;26.00;99.90;;;;;;5051511;28;20047;-84
2022/08/19 12:03:59;;;;;;;9.15;7.90;;;26.00;99.90;;;;;;5050806;28;20044;-83
2022/08/19 12:06:28;;;;;;;9.48;7.47;;;26.10;99.90;;;;;;5027142;28;20500;-84
2022/08/19 12:09:05;;;;;;;8.52;7.15;;;26.00;99.90;;;;;;5050943;28;20627;-84
2022/08/19 12:11:31;;;;;;;8.98;7.80;;;26.00;99.90;;;;;;5052175;28;20045;-84
2022/08/19 12:13:57;;;;;;;7.78;6.88;;;25.90;99.90;;;;;;5048425;28;20063;-83
2022/08/19 12:16:27;;;;;;;8.00;7.20;;;25.90;99.90;;;;;;5028256;28;20419;-85
2022/08/19 12:18:53;;;;;;;8.30;7.03;;;25.90;99.90;;;;;;5049318;28;20459;-85
2022/08/19 12:21:23;;;;;;;8.93;6.88;;;26.00;99.90;;;;;;5050863;28;20040;-84
2022/08/19 12:23:51;;;;;;;7.47;6.55;;;26.10;99.90;;;;;;5065268;28;20438;-84
2022/08/19 12:26:17;;;;;;;9.32;7.80;;;26.10;99.90;;;;;;5046903;28;20553;-84
2022/08/19 12:28:43;;;;;;;11.95;8.32;;;26.30;99.90;;;;;;5023953;28;20067;-83
2022/08/19 12:31:11;;;;;;;8.25;7.40;;;26.70;99.90;;;;;;5040980;28;20499;-84
2022/08/19 12:33:37;;;;;;;9.65;7.15;;;27.00;99.90;;;;;;5045574;28;20636;-85
2022/08/19 12:36:06;;;;;;;9.07;7.20;;;27.20;99.90;;;;;;5027483;28;20119;-85
2022/08/19 12:38:34;;;;;;;7.80;6.93;;;27.20;99.90;;;;;;5062991;28;20037;-85
2022/08/19 12:40:59;;;;;;;8.57;7.32;;;27.20;99.90;;;;;;5032206;28;20044;-84
2022/08/19 12:43:26;;;;;;;8.25;6.57;;;27.10;99.90;;;;;;5044743;28;20411;-82
2022/08/19 12:45:51;;;;;;;9.80;6.70;;;27.00;99.90;;;;;;5039212;28;20047;-83
2022/08/19 12:48:18;;;;;;;9.55;7.10;;;26.80;99.90;;;;;;5049293;28;20037;-84
2022/08/19 12:50:47;;;;;;;8.23;7.30;;;26.80;99.90;;;;;;5048663;28;20074;-83
2022/08/19 12:53:14;;;;;;;8.88;7.40;;;26.80;99.90;;;;;;5034696;28;20037;-84
2022/08/19 12:55:42;;;;;;;10.52;8.43;;;26.70;99.90;;;;;;5042812;28;20041;-85
2022/08/19 12:58:08;;;;;;;10.65;8.18;;;26.70;99.90;;;;;;5046711;28;20049;-83
2022/08/19 13:00:34;;;;;;;9.50;8.25;;;26.60;99.90;;;;;;5051269;28;20059;-82
2022/08/19 13:03:00;;;;;;;11.30;8.00;;;26.40;99.90;;;;;;5048502;28;20487;-83